Time;durP1;ratioP1;P1;durP2;ratioP2;P2;SDS_P1;SDS_P2;PMS_P1;PMS_P2;Temp;Humidity;BMP_temperature;BMP_pressure;BME280_temperature;BME280_humidity;BME280_pressure;Samples;Min_cycle;Max_cycle;Signal;HPM_P1;HPM_P2
2021/11/01 00:01:05;;;;;;;7.85;1.15;;;;;;;8.39;85.95;97812.25;5042021;28;20051;-81
2021/11/01 00:03:32;;;;;;;3.80;1.05;;;;;;;8.38;86.18;97799.69;5057972;28;20036;-81
2021/11/01 00:05:59;;;;;;;4.18;0.70;;;;;;;8.34;85.63;97817.44;5035913;28;20098;-82
2021/11/01 00:08:27;;;;;;;5.10;1.75;;;;;;;8.31;85.46;97821.00;5055901;28;20518;-81
2021/11/01 00:10:54;;;;;;;2.58;0.77;;;;;;;8.25;85.03;97817.84;5055345;28;20126;-81
2021/11/01 00:13:21;;;;;;;2.28;0.80;;;;;;;8.21;85.02;97813.50;5037822;28;20091;-81
2021/11/01 00:15:47;;;;;;;7.68;0.90;;;;;;;8.17;85.02;97810.00;5039370;28;20655;-80
2021/11/01 00:18:16;;;;;;;4.03;0.80;;;;;;;8.13;84.94;97812.00;5055556;28;20063;-82
2021/11/01 00:20:44;;;;;;;6.97;0.82;;;;;;;8.13;85.03;97815.50;5036512;28;20052;-81
2021/11/01 00:23:11;;;;;;;3.17;1.25;;;;;;;8.10;84.72;97823.81;5050757;28;20056;-81
2021/11/01 00:25:38;;;;;;;5.47;1.13;;;;;;;8.08;84.68;97834.41;5055734;28;20094;-81
2021/11/01 00:28:05;;;;;;;5.28;1.17;;;;;;;8.06;84.42;97836.78;5056217;28;20052;-81
2021/11/01 00:30:35;;;;;;;4.00;0.80;;;;;;;7.99;84.49;97835.63;5040194;28;20029;-81
2021/11/01 00:33:02;;;;;;;4.07;1.00;;;;;;;7.99;84.45;97827.34;5021255;28;20072;-81
2021/11/01 00:35:29;;;;;;;3.30;0.82;;;;;;;7.96;84.36;97841.16;5053043;28;20076;-81
2021/11/01 00:37:55;;;;;;;5.15;0.82;;;;;;;7.96;84.36;97847.47;5033043;28;20087;-82
2021/11/01 00:40:22;;;;;;;4.75;0.40;;;;;;;7.91;84.33;97834.09;5048278;28;21304;-81
2021/11/01 00:42:49;;;;;;;2.03;0.52;;;;;;;7.91;83.88;97856.13;5019487;28;20111;-82
2021/11/01 00:45:16;;;;;;;4.90;1.33;;;;;;;7.86;84.06;97853.78;5036547;28;20114;-81
2021/11/01 00:47:43;;;;;;;3.28;0.70;;;;;;;7.86;84.09;97856.53;5052164;28;20049;-81
2021/11/01 00:50:10;;;;;;;4.30;0.75;;;;;;;7.87;84.12;97860.06;5052360;28;20064;-82
2021/11/01 00:52:38;;;;;;;1.35;0.77;;;;;;;7.83;83.97;97881.34;5054414;28;20044;-81
2021/11/01 00:55:06;;;;;;;3.92;0.55;;;;;;;7.82;84.17;97872.28;5053124;28;20045;-82
2021/11/01 00:57:33;;;;;;;4.30;0.88;;;;;;;7.84;84.09;97874.63;5052935;28;20041;-81
2021/11/01 01:00:02;;;;;;;4.32;0.68;;;;;;;7.83;84.08;97881.34;5051896;28;20089;-82
2021/11/01 01:02:34;;;;;;;3.97;0.73;;;;;;;7.85;83.91;97881.72;5054545;28;20123;-82
2021/11/01 01:05:04;;;;;;;4.90;0.85;;;;;;;7.85;84.17;97896.28;5055827;28;20068;-81
2021/11/01 01:07:32;;;;;;;4.32;0.80;;;;;;;7.87;84.02;97898.63;5053927;28;20049;-81
2021/11/01 01:09:59;;;;;;;6.50;0.93;;;;;;;7.86;83.88;97889.56;5035788;28;20134;-81
2021/11/01 01:12:26;;;;;;;2.40;0.75;;;;;;;7.90;84.00;97895.09;5017445;28;20041;-81
2021/11/01 01:14:58;;;;;;;3.63;1.30;;;;;;;7.89;84.17;97882.47;5052232;28;20124;-81
2021/11/01 01:17:26;;;;;;;2.08;0.60;;;;;;;7.87;84.13;97907.69;5035763;28;20045;-82
2021/11/01 01:20:03;;;;;;;5.57;0.93;;;;;;;7.89;84.29;97904.53;5049198;28;20029;-81
2021/11/01 01:22:31;;;;;;;3.00;1.00;;;;;;;7.90;84.02;97917.91;5054121;28;20041;-81
2021/11/01 01:25:24;;;;;;;3.92;1.83;;;;;;;7.89;84.03;97901.75;5037293;28;20037;-82
2021/11/01 01:27:52;;;;;;;6.18;1.30;;;;;;;7.92;84.27;97912.78;5036705;28;20036;-81
2021/11/01 01:30:21;;;;;;;2.97;0.50;;;;;;;7.90;84.05;97917.91;5048608;28;20685;-82
2021/11/01 01:32:48;;;;;;;6.30;1.60;;;;;;;7.88;83.97;97912.03;5054846;28;20114;-81
2021/11/01 01:35:17;;;;;;;8.00;0.82;;;;;;;7.87;83.94;97913.19;5054923;28;20069;-80
2021/11/01 01:37:44;;;;;;;3.28;1.17;;;;;;;7.86;84.03;97921.88;5052567;28;20059;-81
2021/11/01 01:40:15;;;;;;;4.90;1.33;;;;;;;7.81;83.90;97920.28;5051239;28;20124;-81
2021/11/01 01:42:43;;;;;;;7.07;1.58;;;;;;;7.74;83.78;97922.25;5035880;28;20053;-81
2021/11/01 01:45:10;;;;;;;4.78;1.10;;;;;;;7.69;83.89;97903.38;5031717;28;20060;-81
2021/11/01 01:47:40;;;;;;;8.57;1.45;;;;;;;7.64;83.60;97912.84;5034612;28;20049;-81
2021/11/01 01:50:12;;;;;;;6.53;1.00;;;;;;;7.60;83.70;97909.28;5053356;28;20571;-81
2021/11/01 01:52:41;;;;;;;9.18;0.70;;;;;;;7.59;83.80;97915.97;5034961;28;20071;-82
2021/11/01 01:55:11;;;;;;;7.20;0.70;;;;;;;7.56;83.39;97919.53;5051715;28;20088;-81
2021/11/01 01:57:38;;;;;;;6.72;0.90;;;;;;;7.54;83.72;97921.88;5052730;28;20120;-81
2021/11/01 02:00:12;;;;;;;6.85;1.00;;;;;;;7.53;83.57;97925.81;5030313;28;20049;-81
2021/11/01 02:02:42;;;;;;;6.72;0.98;;;;;;;7.53;83.58;97923.06;5036149;28;20052;-81
2021/11/01 02:05:11;;;;;;;4.03;1.00;;;;;;;7.53;83.43;97931.31;5048713;28;20066;-81
2021/11/01 02:07:47;;;;;;;8.30;0.75;;;;;;;7.52;83.44;97926.97;5049205;28;20120;-81
2021/11/01 02:10:19;;;;;;;5.22;1.38;;;;;;;7.56;83.35;97938.00;5035862;28;20148;-80
2021/11/01 02:12:57;;;;;;;;;;;;;;;7.53;83.07;97944.28;5052189;28;20090;-81
2021/11/01 02:15:39;;;;;;;2.30;0.88;;;;;;;7.54;83.33;97943.91;5051679;28;19924;-81
2021/11/01 02:18:09;;;;;;;7.65;0.80;;;;;;;7.55;83.18;97937.22;5048372;28;20045;-81
2021/11/01 02:20:35;;;;;;;5.35;0.85;;;;;;;7.58;83.23;97930.91;5050935;28;20037;-81
2021/11/01 02:23:12;;;;;;;7.68;1.08;;;;;;;7.57;82.99;97932.09;5032716;28;20073;-81
2021/11/01 02:25:48;;;;;;;3.53;0.73;;;;;;;7.57;83.27;97953.34;5052224;28;20040;-80
2021/11/01 02:28:19;;;;;;;7.43;1.30;;;;;;;7.58;82.91;97949.41;5049247;28;20511;-81
2021/11/01 02:30:50;;;;;;;3.55;0.80;;;;;;;7.58;82.97;97939.19;5050781;28;20131;-81
2021/11/01 02:33:19;;;;;;;8.90;1.48;;;;;;;7.62;82.99;97948.25;5050719;28;20075;-81
2021/11/01 02:35:46;;;;;;;3.83;0.85;;;;;;;7.64;82.97;97948.63;5053105;28;20504;-81
2021/11/01 02:38:15;;;;;;;4.60;0.52;;;;;;;7.67;82.89;97950.59;5048227;28;20040;-81
2021/11/01 02:40:44;;;;;;;3.92;0.90;;;;;;;7.63;82.50;97947.03;5051800;28;20205;-80
2021/11/01 02:43:15;;;;;;;5.65;0.90;;;;;;;7.60;82.22;97953.31;5049471;28;20072;-81
2021/11/01 02:45:43;;;;;;;9.13;1.27;;;;;;;7.56;82.34;97965.53;5017790;28;20064;-81
2021/11/01 02:48:14;;;;;;;5.60;0.80;;;;;;;7.52;82.36;97951.75;5035362;28;20040;-82
2021/11/01 02:50:41;;;;;;;1.95;0.80;;;;;;;7.48;82.40;97948.22;5053419;28;20456;-81
2021/11/01 02:53:07;;;;;;;6.78;1.17;;;;;;;7.45;82.35;97943.50;5052065;28;20106;-81
2021/11/01 02:55:34;;;;;;;11.52;3.95;;;;;;;7.43;82.38;97951.38;5035632;28;20582;-81
2021/11/01 02:58:04;;;;;;;4.43;0.70;;;;;;;7.38;82.31;97954.50;5045354;28;20370;-81
2021/11/01 03:00:32;;;;;;;6.38;1.27;;;;;;;7.40;82.64;97973.38;5032716;28;20095;-80
2021/11/01 03:02:59;;;;;;;5.05;0.77;;;;;;;7.40;82.26;97965.13;5018070;28;20143;-81
2021/11/01 03:05:30;;;;;;;5.90;1.52;;;;;;;7.44;82.50;97961.19;5052398;28;20120;-81
2021/11/01 03:07:58;;;;;;;9.10;0.88;;;;;;;7.46;82.54;97969.06;5050014;28;20404;-81
2021/11/01 03:10:26;;;;;;;2.38;1.02;;;;;;;7.47;82.71;97970.63;5052002;28;20500;-81
2021/11/01 03:12:54;;;;;;;11.85;2.17;;;;;;;7.47;82.58;97970.63;5033916;28;20777;-81
2021/11/01 03:15:23;;;;;;;6.03;1.83;;;;;;;7.50;82.75;97970.63;5050763;28;20160;-80
2021/11/01 03:18:01;;;;;;;6.90;1.35;;;;;;;7.52;82.74;97975.75;5048741;28;20094;-81
2021/11/01 03:20:32;;;;;;;5.35;1.00;;;;;;;7.52;82.70;97984.78;5049825;28;20040;-81
2021/11/01 03:23:26;;;;;;;8.65;2.20;;;;;;;7.53;82.60;97989.13;5052392;28;20583;-80
2021/11/01 03:26:00;;;;;;;5.88;1.58;;;;;;;7.54;82.57;97985.19;5035925;28;20064;-81
2021/11/01 03:28:32;;;;;;;3.78;0.70;;;;;;;7.57;82.69;97997.41;5052758;28;20048;-81
2021/11/01 03:31:03;;;;;;;6.18;1.52;;;;;;;7.59;82.56;98003.28;5050706;28;20151;-81
2021/11/01 03:33:37;;;;;;;5.53;1.10;;;;;;;7.61;82.51;97998.16;5048743;28;20055;-81
2021/11/01 03:36:06;;;;;;;4.80;1.13;;;;;;;7.62;82.34;98011.56;5049946;28;20481;-80
2021/11/01 03:38:36;;;;;;;2.83;1.00;;;;;;;7.62;82.20;98014.31;5052056;28;20472;-81
2021/11/01 03:41:07;;;;;;;14.43;1.27;;;;;;;7.64;82.18;97998.19;5038989;28;20048;-82
2021/11/01 03:43:40;;;;;;;7.30;1.58;;;;;;;7.63;81.85;98013.13;5038116;28;20041;-80
2021/11/01 03:46:08;;;;;;;4.30;0.90;;;;;;;7.64;81.84;98020.22;5054504;28;20052;-80
2021/11/01 03:48:40;;;;;;;3.92;2.05;;;;;;;7.61;81.42;98026.50;5053338;28;20045;-81
2021/11/01 03:53:36;;;;;;;13.80;1.35;;;;;;;7.57;81.56;98013.91;5054993;28;20044;-81
2021/11/01 03:56:04;;;;;;;8.35;1.25;;;;;;;7.55;81.46;98016.25;5015097;28;20048;-80
2021/11/01 03:58:32;;;;;;;7.55;1.05;;;;;;;7.53;81.42;98027.66;5054846;28;20940;-80
2021/11/01 04:00:59;;;;;;;9.02;1.98;;;;;;;7.46;81.37;98021.38;5020323;28;20468;-81
2021/11/01 04:03:30;;;;;;;8.68;1.33;;;;;;;7.43;81.45;98028.44;5021728;28;20044;-81
2021/11/01 04:06:06;;;;;;;6.07;1.85;;;;;;;7.43;81.33;98019.38;5053595;28;20041;-80
2021/11/01 04:08:33;;;;;;;4.43;0.68;;;;;;;7.40;81.38;98018.22;5057450;28;20549;-80
2021/11/01 04:11:00;;;;;;;8.65;1.10;;;;;;;7.34;81.45;98006.00;5051433;28;20087;-81
2021/11/01 04:13:27;;;;;;;6.90;1.33;;;;;;;7.33;81.66;98016.22;5040048;28;20045;-81
2021/11/01 04:15:58;;;;;;;9.88;2.05;;;;;;;7.33;81.60;98013.47;5056942;28;20132;-81
2021/11/01 04:18:48;;;;;;;;;;;;;;;7.30;81.66;98032.72;5055881;28;20044;-80
2021/11/01 04:21:13;;;;;;;7.22;2.97;;;;;;;7.30;81.90;98027.22;5055515;28;19924;-81
2021/11/01 04:23:41;;;;;;;4.90;1.08;;;;;;;7.33;81.82;98038.22;5055206;28;20041;-80
2021/11/01 04:26:09;;;;;;;4.97;0.95;;;;;;;7.38;81.80;98039.03;5053757;28;20099;-80
2021/11/01 04:28:36;;;;;;;17.35;2.60;;;;;;;7.35;81.73;98054.38;5052724;28;20064;-80
2021/11/01 04:31:10;;;;;;;11.90;1.10;;;;;;;7.35;81.77;98051.63;5053843;28;20037;-81
2021/11/01 04:33:39;;;;;;;4.28;1.10;;;;;;;7.35;81.66;98052.41;5038090;28;20040;-81
2021/11/01 04:36:06;;;;;;;8.50;0.90;;;;;;;7.34;81.46;98067.34;5055304;28;20437;-80
2021/11/01 04:54:35;;;;;;;4.40;1.08;;;;;;;7.42;81.27;98097.63;5056386;28;20141;-80
2021/11/01 04:57:03;;;;;;;10.45;0.82;;;;;;;7.42;81.21;98098.41;5033633;28;20120;-81
2021/11/01 04:59:31;;;;;;;3.63;0.80;;;;;;;7.44;81.12;98109.06;5055323;28;20588;-80
2021/11/01 05:01:58;;;;;;;5.15;0.70;;;;;;;7.44;81.37;98111.81;5036087;28;20091;-81
2021/11/01 05:04:33;;;;;;;9.88;3.58;;;;;;;7.42;81.13;98100.38;5051647;28;20068;-81
2021/11/01 05:07:02;;;;;;;4.35;0.63;;;;;;;7.42;81.11;98106.69;5034439;28;20126;-80
2021/11/01 05:12:09;;;;;;;4.95;0.88;;;;;;;7.41;81.08;98118.88;5052218;28;20083;-80
2021/11/01 05:14:53;;;;;;;5.95;1.08;;;;;;;7.38;81.04;98111.41;5038961;28;20041;-80
2021/11/01 05:17:37;;;;;;;2.38;0.70;;;;;;;7.41;81.10;98127.13;5053769;28;20064;-81
2021/11/01 05:20:21;;;;;;;4.07;0.40;;;;;;;7.41;80.98;98127.13;5037867;28;20048;-81
2021/11/01 05:25:26;;;;;;;4.00;0.55;;;;;;;7.39;80.98;98140.47;5053376;28;20515;-81
2021/11/01 05:30:45;;;;;;;6.60;0.57;;;;;;;7.40;81.00;98146.78;5052382;28;20032;-80
2021/11/01 05:35:40;;;;;;;1.15;0.52;;;;;;;7.35;81.11;98157.00;5049537;28;20130;-81
2021/11/01 05:38:08;;;;;;;4.95;0.82;;;;;;;7.36;81.05;98166.00;5036223;28;20068;-80
2021/11/01 05:40:38;;;;;;;3.55;1.35;;;;;;;7.39;80.91;98173.50;5036256;28;20131;-81
2021/11/01 05:43:05;;;;;;;4.28;0.70;;;;;;;7.39;80.83;98167.25;5051664;28;20048;-81
2021/11/01 05:45:32;;;;;;;4.53;0.73;;;;;;;7.38;80.83;98171.94;5049769;28;20507;-79
2021/11/01 05:48:02;;;;;;;3.15;0.95;;;;;;;7.40;80.74;98174.31;5050231;28;20056;-80
2021/11/01 05:50:32;;;;;;;4.32;0.60;;;;;;;7.38;81.08;98182.97;5053013;28;20043;-80
2021/11/01 05:53:01;;;;;;;5.30;0.63;;;;;;;7.39;81.12;98184.50;5034291;28;20076;-80
2021/11/01 05:58:27;;;;;;;6.95;1.75;;;;;;;7.39;81.25;98195.53;5048367;28;20583;-81
2021/11/01 06:13:53;;;;;;;3.78;0.65;;;;;;;7.48;81.32;98225.47;5050922;28;20128;-81
2021/11/01 06:16:21;;;;;;;6.57;0.98;;;;;;;7.48;81.07;98231.75;5050296;28;20048;-80
2021/11/01 06:18:49;;;;;;;2.20;0.80;;;;;;;7.49;81.23;98246.31;5035414;28;20048;-81
2021/11/01 06:21:18;;;;;;;3.88;0.60;;;;;;;7.48;81.15;98248.28;5053077;28;20075;-80
2021/11/01 06:23:51;;;;;;;5.20;0.68;;;;;;;7.51;81.13;98258.53;5052380;28;20498;-81
2021/11/01 06:26:20;;;;;;;2.47;0.52;;;;;;;7.53;81.11;98260.88;5049920;28;20045;-80
2021/11/01 06:28:51;;;;;;;2.53;1.52;;;;;;;7.51;81.26;98260.47;5051807;28;20114;-80
2021/11/01 06:31:45;;;;;;;6.88;1.08;;;;;;;7.50;81.12;98262.44;5034505;28;20037;-80
2021/11/01 07:16:23;;;;;;;2.80;0.55;;;;;;;7.46;81.46;98316.69;5050582;28;20077;-80
2021/11/01 07:22:12;;;;;;;7.47;0.50;;;;;;;7.49;81.45;98320.66;4986277;28;20568;-81
2021/11/01 08:17:23;;;;;;;0.77;0.75;;;;;;;7.45;81.60;98364.66;5055860;28;20045;-78
2021/11/01 08:22:41;;;;;;;3.88;0.38;;;;;;;7.51;82.77;98453.19;5056071;28;20044;-81
2021/11/01 08:36:50;;;;;;;1.95;0.50;;;;;;;7.49;83.09;98469.31;4977286;28;20081;-78
2021/11/01 08:39:15;;;;;;;1.13;0.55;;;;;;;7.46;83.50;98470.06;5035749;28;20055;-78
2021/11/01 08:42:35;;;;;;;7.35;1.17;;;;;;;7.51;83.28;98478.78;5055595;28;20076;-81
2021/11/01 08:44:53;;;;;;;0.77;0.40;;;;;;;7.52;83.33;98490.59;5042064;28;20090;-84
2021/11/01 09:01:25;;;;;;;3.65;0.55;;;;;;;7.49;84.39;98503.16;5055608;28;20113;-79
2021/11/01 09:04:08;;;;;;;3.08;0.57;;;;;;;7.52;84.70;98512.59;5039531;28;20496;-78
2021/11/01 09:07:08;;;;;;;1.02;0.52;;;;;;;7.53;84.55;98514.97;5056956;28;20140;-79
2021/11/01 09:20:25;;;;;;;1.63;0.85;;;;;;;7.57;85.09;98513.03;5054840;28;20048;-78
2021/11/01 09:23:15;;;;;;;3.25;0.45;;;;;;;7.60;85.16;98520.53;5045426;28;20045;-81
2021/11/01 09:26:30;;;;;;;3.15;0.70;;;;;;;7.60;85.33;98515.03;5039057;28;20045;-85
2021/11/01 09:28:40;;;;;;;3.78;1.20;;;;;;;7.67;85.11;98512.34;5033547;28;20040;-79
2021/11/01 09:41:52;;;;;;;2.08;0.65;;;;;;;7.78;85.29;98538.00;5050964;28;20076;-79
2021/11/01 09:44:25;;;;;;;2.10;0.60;;;;;;;7.81;85.26;98534.50;5058641;28;20081;-79
2021/11/01 09:47:00;;;;;;;3.75;0.68;;;;;;;7.83;85.34;98547.91;5032039;28;20037;-79
2021/11/01 09:49:28;;;;;;;3.75;0.70;;;;;;;7.87;85.02;98554.22;5053536;28;20048;-82
2021/11/01 09:51:58;;;;;;;0.80;0.47;;;;;;;7.90;85.13;98561.72;5036369;28;20137;-83
2021/11/01 09:54:29;;;;;;;1.98;0.77;;;;;;;7.91;84.87;98563.31;5054247;28;20048;-83
2021/11/01 09:57:04;;;;;;;2.35;0.60;;;;;;;7.87;85.03;98568.00;5034986;28;20526;-83
2021/11/01 09:59:36;;;;;;;2.85;0.50;;;;;;;7.84;84.59;98558.53;5038597;28;20072;-84
2021/11/01 10:02:07;;;;;;;3.10;0.68;;;;;;;7.85;84.69;98549.09;5059385;28;20465;-82
2021/11/01 10:04:35;;;;;;;0.60;0.30;;;;;;;7.87;84.47;98568.00;5041577;28;20123;-82
2021/11/01 10:07:24;;;;;;;2.30;0.35;;;;;;;7.86;84.07;98580.22;5058722;28;20045;-83
2021/11/01 10:10:13;;;;;;;1.13;0.40;;;;;;;7.88;83.94;98564.88;5057102;28;20089;-84
2021/11/01 10:12:44;;;;;;;1.13;0.43;;;;;;;7.92;84.07;98568.44;5050084;28;20049;-83
2021/11/01 10:18:17;;;;;;;1.65;0.75;;;;;;;8.04;84.25;98575.66;5049525;28;20090;-83
2021/11/01 10:20:49;;;;;;;0.90;0.90;;;;;;;8.08;84.45;98583.91;5054527;28;20064;-84
2021/11/01 10:23:23;;;;;;;2.63;1.27;;;;;;;8.09;84.19;98580.00;5056207;28;20052;-84
2021/11/01 10:25:51;;;;;;;4.35;1.55;;;;;;;8.18;84.37;98588.75;5038243;28;20068;-82
2021/11/01 10:28:29;;;;;;;3.95;2.80;;;;;;;8.24;84.33;98592.72;5031962;28;20036;-83
2021/11/01 10:31:08;;;;;;;2.38;0.90;;;;;;;8.25;84.09;98595.09;5024830;28;20139;-83
2021/11/01 10:33:43;;;;;;;3.47;1.75;;;;;;;8.33;84.26;98601.50;5062605;28;20042;-84
2021/11/01 10:36:23;;;;;;;8.73;2.75;;;;;;;8.40;84.10;98609.81;5056008;28;20139;-84
2021/11/01 10:38:55;;;;;;;4.18;1.20;;;;;;;8.39;83.73;98594.47;5062124;28;20131;-84
2021/11/01 10:41:38;;;;;;;5.82;1.02;;;;;;;8.41;83.77;98597.63;5041705;28;20181;-84
2021/11/01 10:56:19;;;;;;;3.55;1.15;;;;;;;8.46;83.27;98605.53;5010556;28;20428;-87
2021/11/01 11:14:45;;;;;;;3.90;0.40;;;;;;;9.23;81.62;98649.38;5055848;28;20079;-79
2021/11/01 11:25:58;;;;;;;3.47;0.38;;;;;;;9.37;80.46;98645.88;5056196;28;20076;-79
2021/11/01 11:40:08;;;;;;;0.77;0.50;;;;;;;9.39;79.27;98673.91;5041836;28;20449;-78
2021/11/01 11:50:42;;;;;;;4.65;1.27;;;;;;;9.37;79.38;98676.25;5051985;28;20139;-79
2021/11/01 11:53:12;;;;;;;3.97;0.70;;;;;;;9.34;79.37;98674.28;5044699;28;20045;-78
2021/11/01 11:55:40;;;;;;;4.50;1.02;;;;;;;9.27;79.00;98669.50;5060846;28;20041;-79
2021/11/01 11:58:11;;;;;;;3.45;0.95;;;;;;;9.25;79.15;98679.34;5058764;28;20057;-79
2021/11/01 12:00:39;;;;;;;4.50;0.65;;;;;;;9.18;79.06;98682.88;5055815;28;20045;-79
2021/11/01 12:03:17;;;;;;;5.32;1.35;;;;;;;9.10;78.79;98675.72;5061317;28;20128;-79
2021/11/01 12:05:52;;;;;;;2.13;1.20;;;;;;;9.10;79.35;98684.00;5052923;28;20040;-78
2021/11/01 12:19:15;;;;;;;5.45;0.77;;;;;;;8.99;78.69;98678.41;5061582;28;20045;-78
2021/11/01 12:21:44;;;;;;;2.55;1.05;;;;;;;8.98;79.16;98687.06;5058440;28;20048;-78
2021/11/01 12:24:21;;;;;;;2.83;1.00;;;;;;;8.96;79.13;98679.19;5043296;28;20064;-78
2021/11/01 12:26:58;;;;;;;2.13;0.73;;;;;;;8.98;79.06;98685.09;5023982;28;20080;-78
2021/11/01 12:29:25;;;;;;;1.98;0.88;;;;;;;9.04;79.37;98689.09;5062675;28;20115;-78
2021/11/01 12:32:00;;;;;;;2.88;1.33;;;;;;;9.07;79.00;98685.56;5056803;28;20075;-78
2021/11/01 12:34:32;;;;;;;4.72;1.00;;;;;;;9.06;79.12;98683.97;5059193;28;20408;-78
2021/11/01 12:37:11;;;;;;;3.55;0.70;;;;;;;9.03;79.15;98684.75;5044782;28;20040;-78
2021/11/01 12:39:42;;;;;;;3.35;0.68;;;;;;;9.05;79.20;98687.13;5037562;28;20048;-78
2021/11/01 12:59:04;;;;;;;4.43;1.10;;;;;;;9.31;78.24;98694.38;5040462;28;20037;-79
2021/11/01 13:01:31;;;;;;;3.60;1.25;;;;;;;9.37;78.32;98698.34;5018886;28;20505;-78
2021/11/01 13:04:15;;;;;;;11.65;1.92;;;;;;;9.40;78.16;98700.34;5044034;28;20048;-78
2021/11/01 13:09:48;;;;;;;3.03;0.75;;;;;;;9.45;78.13;98711.78;5003408;28;20053;-83
2021/11/01 13:20:23;;;;;;;2.92;1.40;;;;;;;9.55;77.88;98716.59;5041975;28;20068;-82
2021/11/01 13:22:55;;;;;;;4.22;0.88;;;;;;;9.58;77.69;98703.97;5026460;28;20075;-79
2021/11/01 13:25:37;;;;;;;6.05;1.10;;;;;;;9.59;77.84;98711.06;5036204;28;20044;-80
2021/11/01 13:28:43;;;;;;;4.25;1.00;;;;;;;9.57;77.29;98710.69;5045402;28;20098;-82
2021/11/01 13:40:13;;;;;;;6.53;2.97;;;;;;;9.55;77.16;98704.75;5038431;28;20046;-78
2021/11/01 13:42:52;;;;;;;3.22;0.77;;;;;;;9.56;77.05;98722.91;5042042;28;20075;-78
2021/11/01 13:45:21;;;;;;;2.08;0.68;;;;;;;9.53;76.87;98718.16;5050717;28;20047;-78
2021/11/01 13:47:54;;;;;;;2.05;0.65;;;;;;;9.53;76.90;98720.94;5057522;28;20048;-79
2021/11/01 13:50:28;;;;;;;1.33;0.63;;;;;;;9.58;77.00;98720.56;5060376;28;20223;-78
2021/11/01 13:53:14;;;;;;;2.92;1.10;;;;;;;9.68;76.66;98722.56;5054099;28;20040;-78
2021/11/01 13:55:51;;;;;;;1.02;0.60;;;;;;;9.77;76.34;98726.56;5055131;28;20110;-79
2021/11/01 14:01:08;;;;;;;3.47;0.80;;;;;;;10.02;75.67;98723.88;5046609;28;20055;-79
2021/11/01 15:38:31;;;;;;;2.35;0.65;;;;;;;10.45;70.70;98762.75;5061480;28;20076;-79
2021/11/01 16:16:48;;;;;;;7.30;1.52;;;;;;;9.67;70.98;98785.31;5056384;28;20098;-82
2021/11/01 16:19:12;;;;;;;3.38;1.50;;;;;;;9.62;70.99;98780.16;5058133;28;20072;-80
2021/11/01 16:21:39;;;;;;;6.60;2.35;;;;;;;9.62;71.12;98784.91;5057619;28;20578;-80
2021/11/01 16:24:06;;;;;;;8.23;2.22;;;;;;;9.61;71.16;98813.72;5046237;28;20110;-80
2021/11/01 16:26:35;;;;;;;2.05;0.93;;;;;;;9.57;71.27;98835.00;5056452;28;20060;-80
2021/11/01 16:29:07;;;;;;;5.75;0.50;;;;;;;9.47;71.61;98852.28;5058283;28;20068;-82
2021/11/01 16:34:18;;;;;;;4.90;2.40;;;;;;;9.13;72.56;98846.13;5060145;28;20041;-81
2021/11/01 16:39:26;;;;;;;3.05;0.90;;;;;;;8.89;73.87;98836.44;5059106;28;20047;-81
2021/11/01 16:41:53;;;;;;;2.38;0.50;;;;;;;8.82;74.13;98836.34;5057192;28;20465;-81
2021/11/01 16:44:30;;;;;;;1.05;0.60;;;;;;;8.81;74.61;98837.53;5048031;28;20055;-80
2021/11/01 16:46:58;;;;;;;1.75;1.13;;;;;;;8.79;74.92;98845.38;5056904;28;20037;-83
2021/11/01 16:49:29;;;;;;;3.95;1.80;;;;;;;8.73;75.00;98851.63;5043006;28;20090;-80
2021/11/01 16:52:00;;;;;;;3.33;1.83;;;;;;;8.67;75.22;98848.44;5043893;28;20124;-81
2021/11/01 16:54:30;;;;;;;5.05;2.83;;;;;;;8.65;75.08;98853.53;5044264;28;20101;-80
2021/11/01 16:57:24;;;;;;;2.90;1.50;;;;;;;8.62;75.42;98861.75;5057874;28;20045;-81
2021/11/01 16:59:57;;;;;;;3.67;1.52;;;;;;;8.62;75.47;98867.28;5060524;28;20047;-81
2021/11/01 17:30:12;;;;;;;3.50;1.70;;;;;;;8.18;77.47;98847.84;5056029;28;20564;-80
2021/11/01 17:38:22;;;;;;;7.65;3.53;;;;;;;8.18;77.47;98847.84;5058568;28;20052;-80
2021/11/01 18:39:37;;;;;;;6.20;3.95;;;;;;;7.27;80.06;98894.91;5044758;28;20671;-86
2021/11/01 18:42:42;;;;;;;8.30;3.88;;;;;;;7.25;80.15;98900.00;5035666;28;20053;-88
2021/11/01 18:53:37;;;;;;;8.60;5.15;;;;;;;7.19;80.42;98912.47;5053093;28;20111;-87
2021/11/01 18:56:07;;;;;;;8.35;4.93;;;;;;;7.17;80.47;98910.09;5053328;28;20063;-87
2021/11/01 18:58:38;;;;;;;7.55;4.45;;;;;;;7.16;80.37;98916.75;5042341;28;20040;-88
2021/11/01 19:01:10;;;;;;;7.60;4.33;;;;;;;7.13;80.38;98916.69;5052538;28;20559;-87
2021/11/01 19:03:43;;;;;;;6.32;3.70;;;;;;;7.12;80.99;98912.34;5055528;28;20388;-85
2021/11/01 19:06:35;;;;;;;5.53;3.95;;;;;;;7.10;80.61;98920.97;5036761;28;20160;-84
2021/11/01 19:09:23;;;;;;;10.60;4.25;;;;;;;7.11;80.76;98910.75;5033010;28;20043;-86
2021/11/01 20:11:18;;;;;;;7.78;3.78;;;;;;;6.87;82.20;98949.63;5038064;28;20099;-86
2021/11/01 21:26:30;;;;;;;13.80;5.57;;;;;;;6.23;82.18;98984.03;5052235;28;20045;-84
2021/11/01 21:29:00;;;;;;;7.95;4.05;;;;;;;6.23;82.16;98992.28;5037964;28;20044;-85
2021/11/01 21:31:27;;;;;;;9.93;4.25;;;;;;;6.21;82.18;98991.84;5032521;28;20539;-85
2021/11/01 21:33:57;;;;;;;12.27;4.38;;;;;;;6.20;82.19;98987.50;5030686;28;20788;-85
2021/11/01 21:36:24;;;;;;;6.40;4.38;;;;;;;6.17;82.10;98999.19;5052898;28;20047;-86
2021/11/01 21:38:56;;;;;;;9.45;4.10;;;;;;;6.14;82.22;98997.97;5034005;28;20582;-85
2021/11/01 21:41:28;;;;;;;12.60;4.72;;;;;;;6.13;82.17;98998.34;5047139;28;20046;-87
2021/11/01 21:43:55;;;;;;;9.45;3.83;;;;;;;6.12;82.03;98994.00;5025675;28;20380;-86
2021/11/01 21:46:22;;;;;;;12.45;4.32;;;;;;;6.09;82.50;98990.00;5028034;28;20888;-85
2021/11/01 21:48:51;;;;;;;7.60;3.40;;;;;;;6.09;82.27;98992.75;5053854;28;20045;-87
2021/11/01 21:51:19;;;;;;;8.23;3.97;;;;;;;6.09;82.31;99000.19;5035660;28;20044;-85
2021/11/01 21:53:54;;;;;;;6.57;3.55;;;;;;;6.05;82.16;98996.59;5029407;28;20044;-86
2021/11/01 21:56:21;;;;;;;7.13;3.20;;;;;;;6.04;82.58;99000.47;5038633;28;20393;-86
2021/11/01 21:59:07;;;;;;;7.60;3.38;;;;;;;6.03;82.10;98998.91;5051606;28;20560;-85
2021/11/01 22:09:39;;;;;;;8.20;3.47;;;;;;;6.01;82.13;99001.22;5046491;28;20082;-85
2021/11/01 22:18:08;;;;;;;7.63;3.88;;;;;;;5.91;82.63;99012.72;5032728;28;20073;-85
2021/11/01 22:20:39;;;;;;;5.15;2.95;;;;;;;5.90;82.43;99011.94;5048377;28;20045;-85
2021/11/01 22:23:12;;;;;;;5.25;3.00;;;;;;;5.90;82.67;99016.66;5046504;28;20056;-87
2021/11/01 22:34:26;;;;;;;7.57;2.70;;;;;;;5.85;82.31;99006.69;5048882;28;20040;-86
2021/11/01 22:39:43;;;;;;;6.88;2.60;;;;;;;5.82;82.24;99014.84;5029646;28;20558;-85
2021/11/01 22:45:12;;;;;;;16.90;3.63;;;;;;;5.79;82.71;99013.59;5049657;28;20045;-85
2021/11/01 22:58:14;;;;;;;5.32;3.10;;;;;;;5.70;82.65;99021.22;5053700;28;20397;-84
2021/11/01 23:00:53;;;;;;;7.50;2.60;;;;;;;5.68;82.57;99020.78;5054311;28;20045;-85
2021/11/01 23:03:39;;;;;;;7.28;2.92;;;;;;;5.70;82.78;99015.72;5037838;28;20044;-84
2021/11/01 23:33:31;;;;;;;3.75;1.98;;;;;;;5.58;83.17;99026.00;5059476;28;20036;-79
2021/11/01 23:35:58;;;;;;;5.53;2.10;;;;;;;5.57;83.03;99022.47;5057413;28;20075;-79
2021/11/01 23:38:26;;;;;;;5.15;2.75;;;;;;;5.56;83.05;99022.81;5027534;28;20092;-78
2021/11/01 23:40:54;;;;;;;5.47;2.47;;;;;;;5.53;83.43;99027.06;5042492;28;20071;-78
2021/11/01 23:43:20;;;;;;;6.88;2.47;;;;;;;5.53;83.27;99022.34;5058649;28;20166;-79
2021/11/01 23:45:48;;;;;;;10.48;3.97;;;;;;;5.53;83.36;99029.81;5027314;28;20044;-79
2021/11/01 23:48:17;;;;;;;6.25;2.72;;;;;;;5.52;83.46;99030.97;5056451;28;20091;-79
2021/11/01 23:50:45;;;;;;;3.05;1.90;;;;;;;5.50;83.31;99036.81;5044421;28;20567;-78
2021/11/01 23:56:22;;;;;;;17.30;3.35;;;;;;;5.52;83.08;99026.28;5031320;28;20049;-79
2021/11/01 23:58:49;;;;;;;6.05;2.00;;;;;;;5.54;83.16;99029.44;5047599;28;20040;-79
